createdAt,value
2022-11-01T00:00:29.159Z,14.60
2022-11-01T00:05:33.788Z,14.60
2022-11-01T00:10:36.886Z,14.50
2022-11-01T00:15:40.014Z,14.50
2022-11-01T00:20:44.479Z,14.50
2022-11-01T00:25:47.739Z,14.60
2022-11-01T00:30:53.931Z,14.60
2022-11-01T00:36:01.881Z,14.70
2022-11-01T00:41:05.946Z,14.70
2022-11-01T00:46:09.760Z,14.70
2022-11-01T00:51:14.213Z,14.80
2022-11-01T00:56:17.558Z,14.80
2022-11-01T01:01:20.698Z,14.70
2022-11-01T01:06:25.251Z,14.60
2022-11-01T01:11:28.446Z,14.60
2022-11-01T01:16:31.795Z,14.60
2022-11-01T01:21:36.290Z,14.50
2022-11-01T01:26:39.548Z,14.50
2022-11-01T01:31:42.618Z,14.50
2022-11-01T01:36:48.724Z,14.60
2022-11-01T01:42:00.720Z,14.60
2022-11-01T01:47:03.856Z,14.60
2022-11-01T01:52:08.583Z,14.60
2022-11-01T01:57:12.378Z,14.60
2022-11-01T02:02:15.768Z,14.60
2022-11-01T02:07:20.255Z,14.50
2022-11-01T02:12:26.090Z,14.40
2022-11-01T02:17:37.479Z,14.30
2022-11-01T02:23:09.227Z,14.30
2022-11-01T02:28:31.143Z,14.30
2022-11-01T02:33:42.100Z,14.20
2022-11-01T02:38:49.889Z,14.10
2022-11-01T02:43:59.130Z,14.10
2022-11-01T02:49:04.711Z,14.10
2022-11-01T02:54:08.845Z,14.10
2022-11-01T02:59:19.200Z,14.20
2022-11-01T03:04:23.775Z,14.20
2022-11-01T03:09:28.500Z,14.20
2022-11-01T03:14:38.518Z,14.20
2022-11-01T03:19:47.914Z,14.20
2022-11-01T03:24:55.970Z,14.30
2022-11-01T03:30:02.463Z,14.30
2022-11-01T03:35:12.086Z,14.30
2022-11-01T03:40:18.406Z,14.30
2022-11-01T03:45:25.791Z,14.30
2022-11-01T03:50:31.061Z,14.20
2022-11-01T03:55:34.135Z,14.20
2022-11-01T04:00:39.691Z,14.30
2022-11-01T04:05:44.571Z,14.20
2022-11-01T04:10:47.655Z,14.20
2022-11-01T04:16:08.250Z,14.20
2022-11-01T04:21:15.600Z,14.20
2022-11-01T04:26:20.640Z,14.10
2022-11-01T04:31:24.158Z,14.00
2022-11-01T04:36:28.874Z,14.00
2022-11-01T04:41:31.943Z,14.00
2022-11-01T04:46:35.007Z,14.00
2022-11-01T04:51:41.532Z,13.90
2022-11-01T04:56:44.800Z,13.80
2022-11-01T05:01:47.961Z,13.80
2022-11-01T05:06:52.511Z,13.70
2022-11-01T05:11:55.571Z,13.60
2022-11-01T05:16:58.773Z,13.50
2022-11-01T05:22:03.198Z,13.50
2022-11-01T05:27:06.289Z,13.40
2022-11-01T05:32:09.350Z,13.30
2022-11-01T05:37:15.803Z,13.30
2022-11-01T05:42:18.867Z,13.20
2022-11-01T05:47:21.971Z,13.20
2022-11-01T05:52:26.383Z,13.10
2022-11-01T05:57:33.241Z,13.10
2022-11-01T06:02:36.737Z,13.10
2022-11-01T06:07:41.232Z,13.00
2022-11-01T06:12:44.400Z,12.90
2022-11-01T06:17:47.463Z,12.90
2022-11-01T06:22:51.928Z,12.80
2022-11-01T06:27:55.431Z,12.90
2022-11-01T06:33:01.879Z,12.90
2022-11-01T06:38:08.370Z,12.90
2022-11-01T06:43:11.432Z,12.90
2022-11-01T06:48:14.495Z,12.90
2022-11-01T06:53:18.947Z,12.80
2022-11-01T06:58:22.253Z,12.90
2022-11-01T07:03:25.323Z,12.90
2022-11-01T07:08:29.772Z,12.90
2022-11-01T07:13:33.982Z,12.90
2022-11-01T07:18:37.079Z,13.00
2022-11-01T07:23:41.512Z,13.00
2022-11-01T07:28:44.622Z,13.10
2022-11-01T07:33:47.696Z,13.20
2022-11-01T07:38:52.128Z,13.30
2022-11-01T07:43:55.175Z,13.30
2022-11-01T07:49:00.427Z,13.30
2022-11-01T07:54:04.998Z,13.40
2022-11-01T07:59:09.699Z,13.40
2022-11-01T08:04:12.995Z,13.50
2022-11-01T08:09:17.447Z,13.50
2022-11-01T08:14:20.511Z,13.70
2022-11-01T08:19:23.710Z,13.80
2022-11-01T08:24:28.545Z,14.00
2022-11-01T08:29:31.619Z,14.10
2022-11-01T08:34:34.692Z,14.30
2022-11-01T08:39:39.138Z,14.40
2022-11-01T08:44:42.257Z,14.50
2022-11-01T08:49:45.743Z,14.60
2022-11-01T08:54:50.195Z,14.80
2022-11-01T08:59:53.292Z,15.00
2022-11-01T09:04:56.400Z,15.10
2022-11-01T09:10:00.875Z,15.30
2022-11-01T09:15:04.135Z,15.50
2022-11-01T09:20:09.438Z,15.60
2022-11-01T09:25:13.918Z,15.80
2022-11-01T09:30:17.198Z,16.00
2022-11-01T09:35:20.298Z,16.10
2022-11-01T09:40:24.930Z,16.30
2022-11-01T09:45:30.479Z,16.40
2022-11-01T09:50:37.714Z,16.50
2022-11-01T09:55:49.755Z,16.60
2022-11-01T10:01:01.686Z,16.70
2022-11-01T10:06:13.619Z,16.70
2022-11-01T10:11:39.244Z,16.90
2022-11-01T10:16:48.863Z,16.90
2022-11-01T10:21:54.524Z,17.00
2022-11-01T10:27:19.247Z,17.10
2022-11-01T10:32:31.740Z,17.20
2022-11-01T10:37:51.786Z,17.30
2022-11-01T10:43:14.475Z,17.30
2022-11-01T10:48:27.709Z,17.40
2022-11-01T10:53:33.761Z,17.50
2022-11-01T10:58:42.514Z,17.60
2022-11-01T11:03:46.917Z,17.60
2022-11-01T11:08:52.747Z,17.70
2022-11-01T11:13:58.616Z,17.70
2022-11-01T11:19:03.406Z,17.80
2022-11-01T11:24:06.981Z,17.90
2022-11-01T11:29:36.668Z,18.00
2022-11-01T11:34:40.018Z,18.10
2022-11-01T11:39:59.312Z,18.20
2022-11-01T11:45:29.707Z,18.30
2022-11-01T11:50:34.712Z,18.40
2022-11-01T11:55:44.024Z,18.40
2022-11-01T12:00:53.284Z,18.50
2022-11-01T12:05:59.900Z,18.60
2022-11-01T12:11:03.603Z,18.70
2022-11-01T12:16:20.184Z,18.80
2022-11-01T12:21:27.267Z,18.90
2022-11-01T12:26:32.429Z,19.00
2022-11-01T12:31:37.775Z,19.10
2022-11-01T12:36:46.296Z,19.10
2022-11-01T12:41:53.774Z,19.20
2022-11-01T12:47:05.331Z,19.30
2022-11-01T12:52:16.600Z,19.40
2022-11-01T12:57:20.085Z,19.40
2022-11-01T13:02:47.533Z,19.50
2022-11-01T13:08:01.847Z,19.60
2022-11-01T13:13:15.485Z,19.60
2022-11-01T13:18:33.441Z,19.70
2022-11-01T13:23:38.790Z,19.70
2022-11-01T13:29:03.888Z,19.80
2022-11-01T13:34:29.471Z,19.80
2022-11-01T13:39:44.301Z,19.90
2022-11-01T13:44:51.922Z,19.90
2022-11-01T13:50:22.886Z,19.90
2022-11-01T13:55:36.417Z,19.90
2022-11-01T14:00:42.965Z,20.00
2022-11-01T14:05:49.027Z,20.00
2022-11-01T14:10:52.450Z,20.00
2022-11-01T14:16:04.484Z,20.00
2022-11-01T14:21:28.636Z,20.00
2022-11-01T14:26:49.359Z,20.00
2022-11-01T14:31:53.761Z,20.00
2022-11-01T14:37:01.860Z,20.00
2022-11-01T14:42:10.739Z,20.00
2022-11-01T14:47:26.229Z,20.00
2022-11-01T14:52:37.623Z,20.00
2022-11-01T14:57:40.695Z,20.00
2022-11-01T15:02:44.556Z,20.00
2022-11-01T15:07:53.698Z,20.00
2022-11-01T15:12:59.707Z,20.00
2022-11-01T15:18:06.192Z,20.00
2022-11-01T15:23:12.755Z,19.90
2022-11-01T15:28:23.011Z,19.90
2022-11-01T15:33:30.698Z,19.80
2022-11-01T15:38:49.240Z,19.80
2022-11-01T15:43:53.434Z,19.80
2022-11-01T15:48:59.255Z,19.70
2022-11-01T15:54:08.181Z,19.70
2022-11-01T15:59:19.833Z,19.60
2022-11-01T16:04:25.078Z,19.60
2022-11-01T16:09:38.508Z,19.60
2022-11-01T16:14:42.107Z,19.50
2022-11-01T16:19:48.344Z,19.40
2022-11-01T16:25:02.569Z,19.40
2022-11-01T16:30:10.494Z,19.30
2022-11-01T16:35:31.902Z,19.30
2022-11-01T16:40:38.945Z,19.30
2022-11-01T16:45:42.164Z,19.20
2022-11-01T16:50:45.209Z,19.10
2022-11-01T16:55:49.810Z,19.10
2022-11-01T17:00:55.032Z,19.00
2022-11-01T17:05:58.664Z,19.00
2022-11-01T17:11:03.111Z,18.90
2022-11-01T17:16:07.495Z,18.80
2022-11-01T17:21:11.700Z,18.80
2022-11-01T17:26:18.230Z,18.80
2022-11-01T17:31:21.292Z,18.70
2022-11-01T17:36:24.331Z,18.70
2022-11-01T17:41:28.789Z,18.70
2022-11-01T17:46:31.871Z,18.60
2022-11-01T17:51:35.212Z,18.50
2022-11-01T17:56:39.716Z,18.50
2022-11-01T18:01:45.366Z,18.40
2022-11-01T18:06:48.687Z,18.40
2022-11-01T18:12:01.683Z,18.40
2022-11-01T18:17:19.179Z,18.30
2022-11-01T18:22:32.673Z,18.30
2022-11-01T18:27:38.911Z,18.30
2022-11-01T18:32:48.522Z,18.20
2022-11-01T18:38:04.047Z,18.10
2022-11-01T18:43:10.155Z,18.10
2022-11-01T18:48:19.844Z,18.10
2022-11-01T18:53:22.917Z,18.10
2022-11-01T18:58:29.957Z,18.00
2022-11-01T19:03:33.270Z,18.00
2022-11-01T19:08:36.788Z,18.00
2022-11-01T19:13:41.679Z,17.90
2022-11-01T19:18:45.800Z,17.90
2022-11-01T19:23:50.926Z,17.80
2022-11-01T19:28:55.394Z,17.80
2022-11-01T19:34:03.413Z,17.70
2022-11-01T19:39:22.521Z,17.70
2022-11-01T19:44:27.583Z,17.60
2022-11-01T19:49:31.330Z,17.50
2022-11-01T19:54:36.914Z,17.40
2022-11-01T19:59:41.347Z,17.30
2022-11-01T20:04:44.559Z,17.10
2022-11-01T20:09:49.186Z,16.90
2022-11-01T20:14:53.751Z,16.80
2022-11-01T20:19:56.832Z,16.80
2022-11-01T20:25:00.793Z,16.70
2022-11-01T20:30:05.958Z,16.60
2022-11-01T20:35:10.965Z,16.60
2022-11-01T20:40:14.311Z,16.50
2022-11-01T20:45:18.871Z,16.50
2022-11-01T20:50:22.044Z,16.50
2022-11-01T20:55:25.131Z,16.50
2022-11-01T21:00:29.590Z,16.50
2022-11-01T21:05:36.680Z,16.40
2022-11-01T21:10:41.015Z,16.40
2022-11-01T21:15:46.775Z,16.30
2022-11-01T21:20:50.531Z,16.30
2022-11-01T21:25:57.776Z,16.30
2022-11-01T21:31:18.587Z,16.20
2022-11-01T21:36:30.954Z,16.20
2022-11-01T21:41:38.866Z,16.20
2022-11-01T21:46:47.526Z,16.20
2022-11-01T21:51:50.686Z,16.10
2022-11-01T21:56:53.931Z,16.00
2022-11-01T22:02:01.224Z,16.00
2022-11-01T22:07:08.042Z,16.00
2022-11-01T22:12:11.135Z,15.90
2022-11-01T22:17:15.596Z,15.90
2022-11-01T22:22:18.688Z,15.80
2022-11-01T22:27:21.797Z,15.80
2022-11-01T22:32:26.241Z,15.70
2022-11-01T22:37:31.510Z,15.70
2022-11-01T22:42:34.571Z,15.70
2022-11-01T22:47:39.050Z,15.60
2022-11-01T22:52:45.331Z,15.60
2022-11-01T22:57:50.327Z,15.50
2022-11-01T23:02:59.647Z,15.50
2022-11-01T23:08:14.391Z,15.40
2022-11-01T23:13:40.813Z,15.40
2022-11-01T23:18:45.351Z,15.30
2022-11-01T23:23:49.471Z,15.20
2022-11-01T23:28:55.416Z,15.20
2022-11-01T23:34:00.067Z,15.10
2022-11-01T23:39:05.799Z,15.10
2022-11-01T23:44:15.784Z,15.10
2022-11-01T23:49:23.474Z,15.00
2022-11-01T23:54:33.935Z,14.90
2022-11-01T23:59:37.835Z,14.80
